Time;durP1;ratioP1;P1;durP2;ratioP2;P2;SDS_P1;SDS_P2;PMS_P1;PMS_P2;Temp;Humidity;BMP_temperature;BMP_pressure;BME280_temperature;BME280_humidity;BME280_pressure;Samples;Min_cycle;Max_cycle;Signal;HPM_P1;HPM_P2
2021/07/25 00:01:55;;;;;;;20.80;16.55;;;18.20;99.90;;;;;;4894614;29;20044;-87
2021/07/25 00:04:22;;;;;;;25.50;19.10;;;18.10;99.90;;;;;;4862315;29;20028;-86
2021/07/25 00:06:47;;;;;;;27.45;20.13;;;18.10;99.90;;;;;;4877809;29;20601;-86
2021/07/25 00:09:13;;;;;;;25.10;18.27;;;18.10;99.90;;;;;;4893029;29;20057;-86
2021/07/25 00:11:38;;;;;;;22.63;17.23;;;18.10;99.90;;;;;;4877195;29;20045;-87
2021/07/25 00:14:04;;;;;;;22.48;17.88;;;18.10;99.90;;;;;;4877869;29;20036;-86
2021/07/25 00:16:33;;;;;;;20.55;15.85;;;18.10;99.90;;;;;;4874511;29;20037;-86
2021/07/25 00:18:59;;;;;;;24.33;18.88;;;18.10;99.90;;;;;;4896484;29;20067;-86
2021/07/25 00:21:25;;;;;;;23.17;19.02;;;18.10;99.90;;;;;;4896159;29;20036;-86
2021/07/25 00:23:52;;;;;;;25.70;19.23;;;18.00;99.90;;;;;;4879213;29;20092;-85
2021/07/25 00:26:25;;;;;;;25.50;19.92;;;18.00;99.90;;;;;;4911896;29;20036;-87
2021/07/25 00:28:53;;;;;;;26.52;20.92;;;18.00;99.90;;;;;;4896772;29;20048;-85
2021/07/25 00:31:18;;;;;;;26.95;20.10;;;18.00;99.90;;;;;;4912322;29;20082;-87
2021/07/25 00:33:44;;;;;;;28.17;19.90;;;18.00;99.90;;;;;;4907975;29;20036;-86
2021/07/25 00:36:10;;;;;;;24.10;18.63;;;18.00;99.90;;;;;;4898335;29;20032;-87
2021/07/25 00:38:36;;;;;;;27.17;19.95;;;18.00;99.90;;;;;;4903183;29;20029;-87
2021/07/25 00:41:11;;;;;;;23.05;17.02;;;18.00;99.90;;;;;;4887605;29;20096;-87
2021/07/25 00:43:37;;;;;;;24.13;18.67;;;18.00;99.90;;;;;;4900299;29;20033;-86
2021/07/25 00:46:23;;;;;;;19.73;16.27;;;18.00;99.90;;;;;;4887352;29;20028;-86
2021/07/25 00:48:49;;;;;;;20.15;15.70;;;18.00;99.90;;;;;;4870610;29;20052;-87
2021/07/25 00:51:14;;;;;;;24.27;19.13;;;18.00;99.90;;;;;;4842071;29;20057;-87
2021/07/25 00:53:42;;;;;;;28.10;20.55;;;18.00;99.90;;;;;;4841854;29;20117;-87
2021/07/25 00:56:09;;;;;;;22.40;17.77;;;18.00;99.90;;;;;;4857422;29;20037;-87
2021/07/25 00:58:42;;;;;;;25.00;18.83;;;18.00;99.90;;;;;;4857300;29;20033;-86
2021/07/25 01:01:10;;;;;;;24.90;19.15;;;18.00;99.90;;;;;;4857196;29;20076;-86
2021/07/25 01:04:05;;;;;;;22.42;17.83;;;18.00;99.90;;;;;;4857099;29;20657;-87
2021/07/25 01:06:42;;;;;;;26.55;18.42;;;18.00;99.90;;;;;;4872498;29;20053;-86
2021/07/25 01:09:34;;;;;;;25.25;20.25;;;18.00;99.90;;;;;;4872617;29;20033;-88
2021/07/25 01:12:04;;;;;;;23.63;19.05;;;18.00;99.90;;;;;;4855985;29;20054;-85
2021/07/25 01:14:33;;;;;;;22.92;17.83;;;18.00;99.90;;;;;;4872420;29;20101;-86
2021/07/25 01:17:36;;;;;;;27.05;20.88;;;18.00;99.90;;;;;;4856641;29;20037;-86
2021/07/25 01:20:10;;;;;;;22.08;17.30;;;17.90;99.90;;;;;;4872655;29;20049;-87
2021/07/25 01:22:41;;;;;;;22.63;16.38;;;17.90;99.90;;;;;;4872353;29;20046;-86
2021/07/25 01:25:09;;;;;;;23.30;15.73;;;18.00;99.90;;;;;;4863445;29;20041;-88
2021/07/25 01:28:02;;;;;;;18.30;15.63;;;18.00;99.90;;;;;;4879290;29;20036;-87
2021/07/25 01:30:34;;;;;;;18.67;14.45;;;18.00;99.90;;;;;;4895172;29;20072;-87
2021/07/25 01:33:04;;;;;;;19.58;14.65;;;18.00;99.90;;;;;;4894702;29;20036;-88
2021/07/25 01:35:31;;;;;;;19.02;15.60;;;18.00;99.90;;;;;;4894544;29;20034;-87
2021/07/25 01:37:57;;;;;;;19.48;14.88;;;18.00;99.90;;;;;;4894686;29;20075;-87
2021/07/25 01:40:24;;;;;;;20.48;15.30;;;18.00;99.90;;;;;;4894964;29;20040;-87
2021/07/25 01:42:55;;;;;;;21.80;15.10;;;18.00;99.90;;;;;;4894454;29;20039;-87
2021/07/25 01:45:21;;;;;;;19.42;14.98;;;18.00;99.90;;;;;;4894850;29;20037;-87
2021/07/25 01:47:47;;;;;;;20.80;17.20;;;18.00;99.90;;;;;;4910067;29;20040;-86
2021/07/25 01:50:14;;;;;;;18.13;14.73;;;18.00;99.90;;;;;;4894430;29;20041;-87
2021/07/25 01:52:40;;;;;;;21.13;16.50;;;18.00;99.90;;;;;;4910013;29;20064;-86
2021/07/25 01:55:10;;;;;;;19.35;15.30;;;18.00;99.90;;;;;;4910128;29;20096;-87
2021/07/25 01:57:36;;;;;;;19.33;15.25;;;18.00;99.90;;;;;;4910437;29;20040;-86
2021/07/25 02:00:04;;;;;;;21.52;15.70;;;18.00;99.90;;;;;;4894614;29;20052;-87
2021/07/25 02:02:31;;;;;;;18.33;15.20;;;18.00;99.90;;;;;;4910152;29;20043;-87
2021/07/25 02:04:56;;;;;;;23.25;17.33;;;18.00;99.90;;;;;;4894322;29;20036;-87
2021/07/25 02:07:22;;;;;;;19.80;16.25;;;18.00;99.90;;;;;;4909908;29;20029;-87
2021/07/25 02:09:47;;;;;;;19.45;16.08;;;18.00;99.90;;;;;;4894192;29;20055;-87
2021/07/25 02:12:13;;;;;;;22.40;18.30;;;18.00;99.90;;;;;;4910739;29;20055;-86
2021/07/25 02:14:40;;;;;;;19.85;16.30;;;18.00;99.90;;;;;;4910795;29;20120;-87
2021/07/25 02:17:06;;;;;;;21.45;16.35;;;18.00;99.90;;;;;;4894092;29;20041;-87
2021/07/25 02:19:33;;;;;;;25.70;18.55;;;18.00;99.90;;;;;;4878694;29;20386;-88
2021/07/25 02:21:58;;;;;;;19.27;15.88;;;18.00;99.90;;;;;;4878852;29;20136;-87
2021/07/25 02:24:25;;;;;;;20.50;15.75;;;18.00;99.90;;;;;;4909490;29;20048;-87
2021/07/25 02:26:52;;;;;;;18.33;15.40;;;18.00;99.90;;;;;;4894246;29;20033;-88
2021/07/25 02:29:18;;;;;;;20.80;17.23;;;18.00;99.90;;;;;;4910894;29;20028;-87
2021/07/25 02:31:43;;;;;;;21.25;16.55;;;18.00;99.90;;;;;;4878667;29;20059;-87
2021/07/25 02:34:09;;;;;;;22.90;18.05;;;17.90;99.90;;;;;;4910515;29;20025;-87
2021/07/25 02:36:35;;;;;;;21.00;16.13;;;17.90;99.90;;;;;;4878404;29;20092;-88
2021/07/25 02:39:00;;;;;;;21.48;16.63;;;17.90;99.90;;;;;;4910463;29;20092;-87
2021/07/25 02:41:26;;;;;;;20.48;16.35;;;17.90;99.90;;;;;;4878189;29;20076;-87
2021/07/25 02:43:52;;;;;;;24.15;16.75;;;17.90;99.90;;;;;;4893553;29;20051;-87
2021/07/25 02:46:37;;;;;;;21.27;17.05;;;17.80;99.90;;;;;;4893252;29;20071;-86
2021/07/25 02:49:03;;;;;;;23.08;18.58;;;17.80;99.90;;;;;;4852590;29;20118;-88
2021/07/25 02:51:29;;;;;;;16.95;13.05;;;17.70;99.90;;;;;;4852580;29;20058;-87
2021/07/25 02:53:54;;;;;;;21.02;16.92;;;17.60;99.90;;;;;;4837447;29;20045;-87
2021/07/25 02:56:20;;;;;;;25.20;19.08;;;17.60;99.90;;;;;;4837265;29;20041;-87
2021/07/25 02:58:46;;;;;;;21.70;17.38;;;17.50;99.90;;;;;;4852733;29;20038;-86
2021/07/25 03:01:15;;;;;;;23.60;18.33;;;17.50;99.90;;;;;;4852439;29;20046;-86
2021/07/25 03:03:41;;;;;;;20.65;16.35;;;17.50;99.90;;;;;;4852697;29;20523;-86
2021/07/25 03:06:07;;;;;;;23.52;17.23;;;17.40;99.90;;;;;;4852479;29;20053;-86
2021/07/25 03:08:33;;;;;;;21.77;16.58;;;17.30;99.90;;;;;;4852546;29;20086;-86
2021/07/25 03:11:01;;;;;;;20.95;17.60;;;17.30;99.90;;;;;;4836930;29;20042;-86
2021/07/25 03:13:27;;;;;;;21.02;17.17;;;17.20;99.90;;;;;;4852348;29;20054;-87
2021/07/25 03:15:53;;;;;;;19.63;15.07;;;17.20;99.90;;;;;;4844722;29;20086;-86
2021/07/25 03:18:18;;;;;;;20.05;16.30;;;17.20;99.90;;;;;;4834462;29;20038;-87
2021/07/25 03:20:44;;;;;;;20.45;15.43;;;17.20;99.90;;;;;;4818953;29;20091;-87
2021/07/25 03:23:10;;;;;;;20.30;15.38;;;17.20;99.90;;;;;;4818859;29;20022;-87
2021/07/25 03:25:35;;;;;;;16.17;13.75;;;17.20;99.90;;;;;;4854892;29;20044;-86
2021/07/25 03:28:01;;;;;;;17.20;13.55;;;17.20;99.90;;;;;;4877742;29;20084;-87
2021/07/25 03:30:26;;;;;;;19.00;15.10;;;17.20;99.90;;;;;;4908927;29;20054;-87
2021/07/25 03:32:52;;;;;;;17.08;13.70;;;17.20;99.90;;;;;;4893257;29;20038;-86
2021/07/25 03:35:17;;;;;;;18.40;13.88;;;17.10;99.90;;;;;;4893275;29;20040;-86
2021/07/25 03:37:45;;;;;;;18.33;13.70;;;17.20;99.90;;;;;;4877794;29;20081;-86
2021/07/25 03:40:12;;;;;;;18.73;14.50;;;17.20;99.90;;;;;;4893414;29;20040;-87
2021/07/25 03:42:38;;;;;;;17.15;13.23;;;17.20;99.90;;;;;;4877533;29;20508;-86
2021/07/25 03:45:05;;;;;;;17.05;13.55;;;17.20;99.90;;;;;;4908991;29;20061;-87
2021/07/25 03:47:31;;;;;;;17.90;13.60;;;17.20;99.90;;;;;;4892990;29;20048;-87
2021/07/25 03:49:58;;;;;;;16.35;13.18;;;17.20;99.90;;;;;;4877812;29;20088;-87
2021/07/25 03:52:23;;;;;;;16.45;13.82;;;17.10;99.90;;;;;;4893451;29;20041;-87
2021/07/25 03:54:49;;;;;;;16.50;13.57;;;17.10;99.90;;;;;;4909931;29;20052;-86
2021/07/25 03:57:14;;;;;;;16.35;13.38;;;17.10;99.90;;;;;;4877492;29;20057;-87
2021/07/25 03:59:40;;;;;;;19.38;13.30;;;17.10;99.90;;;;;;4880690;29;20060;-86
2021/07/25 04:02:06;;;;;;;15.45;12.90;;;17.10;99.90;;;;;;4881037;29;20112;-87
2021/07/25 04:04:32;;;;;;;18.15;13.13;;;17.10;99.90;;;;;;4880907;29;20025;-89
2021/07/25 04:06:57;;;;;;;16.75;13.70;;;17.10;99.90;;;;;;4913203;29;20072;-90
2021/07/25 04:09:23;;;;;;;19.90;12.70;;;17.10;99.90;;;;;;4887098;29;20111;-88
2021/07/25 04:11:54;;;;;;;14.35;12.10;;;17.10;99.90;;;;;;4912255;29;20490;-88
2021/07/25 04:14:20;;;;;;;16.30;11.85;;;17.00;99.90;;;;;;4914508;29;20036;-85
2021/07/25 04:16:45;;;;;;;13.90;11.43;;;17.10;99.90;;;;;;4913999;29;20576;-87
2021/07/25 04:19:11;;;;;;;13.68;10.20;;;17.00;99.90;;;;;;4898175;29;20517;-87
2021/07/25 04:21:37;;;;;;;14.32;11.40;;;17.00;99.90;;;;;;4913996;29;20032;-87
2021/07/25 04:24:03;;;;;;;14.43;11.50;;;17.00;99.90;;;;;;4931074;29;20059;-88
2021/07/25 04:26:28;;;;;;;14.82;11.35;;;17.00;99.90;;;;;;4898308;29;20036;-87
2021/07/25 04:28:54;;;;;;;13.27;11.88;;;17.00;99.90;;;;;;4913603;29;20047;-87
2021/07/25 04:31:20;;;;;;;12.30;10.48;;;17.00;99.90;;;;;;4913664;29;20056;-87
2021/07/25 04:33:51;;;;;;;13.98;12.07;;;17.00;99.90;;;;;;4898021;29;20028;-87
2021/07/25 04:36:24;;;;;;;14.23;11.10;;;17.00;99.90;;;;;;4922820;29;20119;-87
2021/07/25 04:38:51;;;;;;;13.13;11.63;;;17.00;99.90;;;;;;4929717;29;20120;-87
2021/07/25 04:41:21;;;;;;;13.85;10.32;;;17.00;99.90;;;;;;4913988;29;20103;-88
2021/07/25 04:43:47;;;;;;;11.02;9.20;;;17.00;99.90;;;;;;4929651;29;20036;-86
2021/07/25 04:46:33;;;;;;;12.15;9.57;;;17.00;99.90;;;;;;4929402;29;20032;-88
2021/07/25 04:49:12;;;;;;;12.57;9.25;;;17.10;99.90;;;;;;4924007;23;20056;-88
2021/07/25 04:51:40;;;;;;;11.75;8.95;;;17.10;99.90;;;;;;4897539;29;20120;-90
2021/07/25 04:54:11;;;;;;;10.20;8.00;;;17.10;99.90;;;;;;4880005;29;20040;-89
2021/07/25 04:56:59;;;;;;;11.13;9.07;;;17.20;99.90;;;;;;4880122;29;20033;-89
2021/07/25 04:59:52;;;;;;;10.50;8.23;;;17.20;99.90;;;;;;4910062;29;20119;-88
2021/07/25 05:02:20;;;;;;;9.80;7.90;;;17.30;99.90;;;;;;4878018;29;20048;-89
2021/07/25 05:04:48;;;;;;;10.02;7.88;;;17.20;99.90;;;;;;4895602;29;20537;-89
2021/07/25 05:07:14;;;;;;;10.55;8.18;;;17.20;99.90;;;;;;4894975;29;20028;-90
2021/07/25 05:09:42;;;;;;;9.05;7.38;;;17.30;99.90;;;;;;4894392;29;20056;-90
2021/07/25 05:12:32;;;;;;;7.25;6.50;;;17.30;99.90;;;;;;4894992;29;20497;-89
2021/07/25 05:15:04;;;;;;;9.43;7.38;;;17.30;99.90;;;;;;4895385;29;20044;-90
2021/07/25 05:17:43;;;;;;;10.95;7.18;;;17.40;99.90;;;;;;4897930;29;20055;-90
2021/07/25 05:20:15;;;;;;;7.93;6.17;;;17.40;99.90;;;;;;4913982;29;20475;-89
2021/07/25 05:22:52;;;;;;;7.35;6.07;;;17.40;99.90;;;;;;4897760;29;20032;-88
2021/07/25 05:25:20;;;;;;;8.27;5.85;;;17.40;99.90;;;;;;4897969;29;20047;-88
2021/07/25 05:27:48;;;;;;;6.60;5.40;;;17.50;99.90;;;;;;4930326;29;20028;-88
2021/07/25 05:30:17;;;;;;;6.10;5.03;;;17.50;99.90;;;;;;4897606;29;20301;-89
2021/07/25 05:32:42;;;;;;;7.70;6.18;;;17.50;99.90;;;;;;4897558;29;20056;-88
2021/07/25 05:35:09;;;;;;;6.22;5.00;;;17.50;99.90;;;;;;4897627;29;20040;-88
2021/07/25 05:37:35;;;;;;;7.97;5.32;;;17.50;99.90;;;;;;4915415;29;20123;-88
2021/07/25 05:40:01;;;;;;;6.85;5.13;;;17.50;99.90;;;;;;4912962;29;20051;-88
2021/07/25 05:42:27;;;;;;;7.07;4.65;;;17.50;99.90;;;;;;4913031;29;20032;-88
2021/07/25 05:44:52;;;;;;;6.68;5.10;;;17.50;99.90;;;;;;4895711;29;20076;-87
2021/07/25 05:47:18;;;;;;;6.53;4.38;;;17.60;99.90;;;;;;4912428;29;20385;-87
2021/07/25 05:49:44;;;;;;;6.57;4.88;;;17.60;99.90;;;;;;4912888;29;20107;-88
2021/07/25 05:52:09;;;;;;;7.10;5.53;;;17.70;99.90;;;;;;4912195;29;20043;-87
2021/07/25 05:54:35;;;;;;;6.07;4.68;;;17.70;99.90;;;;;;4912286;29;20048;-88
2021/07/25 05:57:01;;;;;;;6.63;5.03;;;17.90;99.90;;;;;;4912552;29;20047;-87
2021/07/25 05:59:27;;;;;;;6.18;4.78;;;18.00;99.90;;;;;;4912580;29;20061;-87
2021/07/25 06:01:52;;;;;;;9.27;5.65;;;18.10;99.90;;;;;;4912447;29;20100;-87
2021/07/25 06:04:19;;;;;;;5.82;4.65;;;18.40;99.90;;;;;;4912667;29;20059;-87
2021/07/25 06:06:44;;;;;;;8.43;5.03;;;18.80;99.90;;;;;;4912492;29;20035;-88
2021/07/25 06:09:13;;;;;;;6.85;5.22;;;19.00;99.90;;;;;;4912281;29;20036;-88
2021/07/25 06:11:38;;;;;;;6.80;4.30;;;19.10;99.90;;;;;;4928193;29;20044;-88
2021/07/25 06:14:04;;;;;;;4.43;3.55;;;19.20;99.90;;;;;;4912395;29;20086;-88
2021/07/25 06:16:31;;;;;;;8.10;5.07;;;19.30;99.90;;;;;;4911987;29;20036;-89
2021/07/25 06:18:56;;;;;;;6.00;4.70;;;19.30;99.90;;;;;;4928262;29;20031;-87
2021/07/25 06:21:23;;;;;;;6.43;4.85;;;19.30;99.90;;;;;;4911742;29;20028;-88
2021/07/25 06:23:50;;;;;;;5.00;4.13;;;19.40;99.90;;;;;;4927772;29;20032;-88
2021/07/25 06:26:16;;;;;;;5.20;4.70;;;19.80;99.90;;;;;;4912222;29;20032;-87
2021/07/25 06:28:42;;;;;;;6.97;4.63;;;20.00;99.90;;;;;;4912258;29;20039;-87
2021/07/25 06:31:08;;;;;;;7.57;4.88;;;19.90;99.90;;;;;;4911658;29;20044;-89
2021/07/25 06:33:33;;;;;;;7.88;4.32;;;20.00;99.90;;;;;;4927959;29;20056;-87
2021/07/25 06:35:59;;;;;;;4.75;3.20;;;20.10;99.90;;;;;;4908796;29;20044;-90
2021/07/25 06:38:26;;;;;;;4.45;3.42;;;20.20;99.90;;;;;;4892913;29;20028;-88
2021/07/25 06:40:56;;;;;;;5.50;4.43;;;20.10;99.90;;;;;;4909076;29;20068;-89
2021/07/25 06:43:22;;;;;;;;;;;20.20;99.90;;;;;;4909358;29;20040;-90
2021/07/25 06:45:53;;;;;;;5.30;4.25;;;20.20;99.90;;;;;;4893167;29;19912;-91
2021/07/25 06:48:21;;;;;;;6.53;3.95;;;20.50;99.90;;;;;;4924343;29;20127;-94
2021/07/25 06:50:49;;;;;;;5.75;5.10;;;20.60;99.90;;;;;;4893496;29;20127;-93
2021/07/25 06:53:16;;;;;;;5.57;4.63;;;20.80;99.90;;;;;;4893027;29;20096;-95
2021/07/25 06:55:49;;;;;;;4.90;4.20;;;21.00;99.90;;;;;;4893796;29;20044;-95
2021/07/25 06:58:15;;;;;;;6.57;3.17;;;21.10;99.90;;;;;;4893695;29;20092;-95
2021/07/25 07:00:41;;;;;;;5.30;3.38;;;21.20;99.90;;;;;;4877949;29;20108;-93
2021/07/25 07:03:07;;;;;;;4.45;3.47;;;21.20;99.90;;;;;;4896396;29;20233;-92
2021/07/25 07:05:34;;;;;;;5.25;3.90;;;21.40;99.90;;;;;;4896375;29;20056;-95
2021/07/25 07:08:05;;;;;;;7.43;4.88;;;21.50;99.90;;;;;;4896137;29;20036;-93
2021/07/25 07:10:37;;;;;;;5.72;3.85;;;21.70;99.90;;;;;;4895739;29;20047;-93
2021/07/25 07:13:08;;;;;;;5.50;3.88;;;21.80;99.90;;;;;;4896296;29;20059;-95
2021/07/25 07:15:35;;;;;;;4.05;3.50;;;22.00;99.90;;;;;;4896789;29;20043;-94
2021/07/25 07:18:01;;;;;;;5.13;3.25;;;21.90;99.90;;;;;;4908972;29;20035;-94
2021/07/25 07:20:27;;;;;;;5.85;3.08;;;22.00;99.90;;;;;;4927534;29;20034;-91
2021/07/25 07:22:56;;;;;;;3.80;2.00;;;22.30;99.90;;;;;;4911267;29;20042;-93
2021/07/25 07:25:23;;;;;;;3.85;2.75;;;22.30;99.90;;;;;;4911752;29;20032;-92
2021/07/25 07:27:49;;;;;;;4.45;2.88;;;22.30;99.90;;;;;;4911693;29;20036;-91
2021/07/25 07:30:15;;;;;;;4.47;2.63;;;22.50;99.90;;;;;;4927607;29;20473;-92
2021/07/25 07:32:41;;;;;;;4.07;2.70;;;22.70;99.90;;;;;;4927685;29;20035;-92
2021/07/25 07:35:07;;;;;;;4.13;2.50;;;22.70;99.90;;;;;;4915815;29;20055;-91
2021/07/25 07:37:33;;;;;;;3.17;2.03;;;23.00;99.90;;;;;;4931133;29;20042;-90
2021/07/25 07:39:58;;;;;;;2.30;1.67;;;23.10;99.90;;;;;;4916171;29;20052;-96
2021/07/25 07:42:24;;;;;;;28.25;4.07;;;23.10;99.90;;;;;;4916795;29;20036;-89
2021/07/25 07:44:50;;;;;;;8.20;2.45;;;23.40;99.90;;;;;;4915067;29;20028;-91
2021/07/25 07:47:16;;;;;;;3.25;1.90;;;23.40;99.90;;;;;;4908560;29;20044;-95
2021/07/25 07:49:43;;;;;;;4.97;2.00;;;23.40;99.90;;;;;;4915317;29;20100;-93
2021/07/25 07:52:09;;;;;;;4.45;1.38;;;23.60;99.90;;;;;;4915398;29;20032;-93
2021/07/25 07:54:35;;;;;;;3.38;1.75;;;23.60;99.90;;;;;;4889555;29;20052;-91
2021/07/25 07:57:01;;;;;;;2.72;1.42;;;23.90;99.90;;;;;;4900461;29;20055;-91
2021/07/25 07:59:28;;;;;;;2.85;1.35;;;23.60;99.90;;;;;;4900180;29;20036;-90
2021/07/25 08:01:53;;;;;;;2.50;1.20;;;23.70;99.90;;;;;;4900228;29;20047;-90
2021/07/25 08:04:19;;;;;;;2.28;1.45;;;24.00;99.90;;;;;;4900268;29;20048;-91
2021/07/25 08:06:48;;;;;;;2.88;1.63;;;24.40;99.90;;;;;;4899838;29;20096;-88
2021/07/25 08:09:21;;;;;;;3.78;2.13;;;24.20;99.90;;;;;;4899907;29;20058;-91
2021/07/25 08:11:47;;;;;;;2.88;1.48;;;24.20;99.90;;;;;;4899964;29;20056;-91
2021/07/25 08:14:13;;;;;;;2.40;1.45;;;24.50;99.90;;;;;;4899950;29;20135;-90
2021/07/25 08:16:40;;;;;;;2.83;1.33;;;24.60;99.90;;;;;;4899785;29;20473;-91
2021/07/25 08:19:07;;;;;;;2.35;1.05;;;24.80;99.90;;;;;;4899715;29;20099;-91
2021/07/25 08:21:33;;;;;;;2.97;1.25;;;25.00;99.90;;;;;;4915209;29;20040;-90
2021/07/25 08:23:58;;;;;;;3.35;1.20;;;25.10;99.90;;;;;;4899365;29;20036;-90
2021/07/25 08:26:24;;;;;;;3.85;1.40;;;25.00;99.90;;;;;;4931145;29;20043;-89
2021/07/25 08:28:49;;;;;;;2.63;1.00;;;24.80;99.90;;;;;;4898540;29;20032;-89
2021/07/25 08:31:15;;;;;;;2.58;1.10;;;24.90;99.90;;;;;;4902985;29;20174;-89
2021/07/25 08:33:40;;;;;;;4.15;1.40;;;24.70;99.90;;;;;;4880117;29;20028;-90
2021/07/25 08:36:06;;;;;;;4.00;1.52;;;24.60;99.90;;;;;;4884928;29;20036;-90
2021/07/25 08:38:32;;;;;;;1.92;0.93;;;24.50;99.90;;;;;;4914293;29;20031;-89
2021/07/25 08:41:13;;;;;;;2.30;1.08;;;25.20;99.90;;;;;;4914408;29;20048;-89
2021/07/25 08:43:45;;;;;;;2.58;1.25;;;25.40;99.90;;;;;;4898443;29;20024;-88
2021/07/25 08:46:31;;;;;;;3.05;1.48;;;25.60;99.90;;;;;;4913230;29;20043;-87
2021/07/25 08:48:58;;;;;;;4.60;1.30;;;25.80;99.90;;;;;;4872069;29;20050;-92
2021/07/25 08:51:28;;;;;;;6.03;1.70;;;25.80;99.90;;;;;;4872641;29;20054;-89
2021/07/25 08:54:03;;;;;;;3.33;1.55;;;25.40;99.90;;;;;;4872451;29;20045;-88
2021/07/25 08:56:36;;;;;;;6.18;2.58;;;25.00;99.90;;;;;;4856902;29;20038;-89
2021/07/25 08:59:04;;;;;;;3.92;1.63;;;25.30;99.90;;;;;;4872421;29;20034;-88
2021/07/25 09:01:35;;;;;;;2.60;2.00;;;25.60;99.90;;;;;;4872480;29;20074;-89
2021/07/25 09:04:02;;;;;;;3.00;1.63;;;25.50;99.90;;;;;;4872073;29;20038;-85
2021/07/25 09:06:43;;;;;;;3.15;1.63;;;25.80;99.90;;;;;;4856007;29;20049;-85
2021/07/25 09:09:10;;;;;;;4.38;3.05;;;25.60;99.90;;;;;;4857540;29;20041;-89
2021/07/25 09:11:36;;;;;;;3.03;1.42;;;25.60;99.90;;;;;;4857674;29;20065;-90
2021/07/25 09:14:04;;;;;;;683.30;112.60;;;25.90;99.90;;;;;;4842321;29;20061;-93
2021/07/25 09:16:31;;;;;;;138.85;20.90;;;25.80;99.90;;;;;;4872826;29;20041;-92
2021/07/25 09:18:58;;;;;;;100.28;11.93;;;25.50;99.90;;;;;;4873002;29;20061;-92
2021/07/25 09:21:38;;;;;;;175.13;25.90;;;26.10;99.90;;;;;;4873302;29;20038;-93
2021/07/25 09:24:26;;;;;;;28.13;5.75;;;26.20;99.90;;;;;;4873070;29;20049;-93
2021/07/25 09:27:01;;;;;;;6.60;1.73;;;26.30;99.90;;;;;;4905865;29;20041;-91
2021/07/25 09:29:29;;;;;;;3.58;1.40;;;26.80;99.90;;;;;;4930173;29;20043;-93
2021/07/25 09:32:14;;;;;;;3.35;1.23;;;26.20;99.90;;;;;;4926251;29;20044;-94
2021/07/25 09:34:42;;;;;;;2.63;1.00;;;25.40;99.90;;;;;;4897812;29;20540;-93
2021/07/25 09:37:10;;;;;;;6.80;1.17;;;26.00;99.90;;;;;;4897699;29;20109;-92
2021/07/25 09:39:41;;;;;;;3.60;1.08;;;26.50;99.90;;;;;;4898019;29;20300;-90
2021/07/25 09:42:08;;;;;;;15.50;2.20;;;26.60;99.90;;;;;;4897544;29;20028;-93
2021/07/25 09:44:55;;;;;;;64.05;6.15;;;26.90;99.90;;;;;;4897751;29;20029;-86
2021/07/25 09:47:37;;;;;;;60.97;5.72;;;27.20;99.90;;;;;;4912834;29;20039;-91
2021/07/25 09:50:07;;;;;;;5.28;1.15;;;27.40;99.90;;;;;;4904062;29;20044;-91
2021/07/25 09:52:34;;;;;;;4.00;1.20;;;27.00;99.90;;;;;;4898165;29;20040;-90
2021/07/25 09:55:01;;;;;;;3.35;1.23;;;25.40;99.90;;;;;;4913762;29;20035;-90
2021/07/25 09:57:29;;;;;;;4.53;1.52;;;25.30;99.90;;;;;;4897404;29;20043;-88
2021/07/25 10:00:08;;;;;;;3.53;1.40;;;25.50;99.90;;;;;;4897208;29;20060;-87
2021/07/25 10:02:43;;;;;;;4.03;1.27;;;25.60;99.90;;;;;;4913916;29;20040;-86
2021/07/25 10:05:10;;;;;;;1.98;0.93;;;26.00;99.90;;;;;;4913302;29;20036;-86
2021/07/25 10:07:36;;;;;;;1.73;1.02;;;26.00;99.90;;;;;;4897658;29;20032;-88
2021/07/25 10:10:09;;;;;;;6.07;1.30;;;26.20;99.90;;;;;;4897378;29;20040;-89
2021/07/25 10:12:37;;;;;;;3.75;1.25;;;26.20;99.90;;;;;;4913419;29;20544;-89
2021/07/25 10:15:16;;;;;;;4.53;1.20;;;26.30;99.90;;;;;;4897823;29;20036;-89
2021/07/25 10:17:47;;;;;;;2.63;1.05;;;27.10;99.90;;;;;;4912926;29;20120;-87
2021/07/25 10:20:16;;;;;;;2.65;1.27;;;27.50;99.90;;;;;;4913162;29;20051;-92
2021/07/25 10:22:46;;;;;;;2.28;0.85;;;27.70;99.90;;;;;;4897707;29;20032;-91
2021/07/25 10:25:15;;;;;;;3.65;1.30;;;28.00;99.90;;;;;;4897693;29;20036;-92
2021/07/25 10:27:44;;;;;;;6.57;2.73;;;27.70;99.90;;;;;;4896713;29;20039;-92
2021/07/25 10:30:11;;;;;;;7.68;0.98;;;27.60;99.90;;;;;;4897319;29;20339;-86
2021/07/25 10:32:38;;;;;;;88.95;8.45;;;28.70;99.90;;;;;;4897144;29;20035;-86
2021/07/25 10:35:07;;;;;;;15.07;2.13;;;28.60;99.90;;;;;;4897245;29;20083;-93
2021/07/25 10:37:41;;;;;;;8.60;2.88;;;27.40;99.90;;;;;;4897406;29;20171;-89
2021/07/25 10:40:09;;;;;;;7.57;2.25;;;27.00;99.90;;;;;;4897384;29;20043;-87
2021/07/25 10:42:45;;;;;;;4.00;1.98;;;27.80;99.90;;;;;;4897127;29;20385;-91
2021/07/25 10:45:11;;;;;;;3.15;1.90;;;28.60;99.90;;;;;;4897584;29;20067;-90
2021/07/25 10:47:37;;;;;;;2.13;1.45;;;28.40;99.90;;;;;;4896890;29;20055;-89
2021/07/25 10:50:18;;;;;;;6.35;1.38;;;28.30;99.90;;;;;;4912935;29;20048;-91
2021/07/25 10:52:52;;;;;;;3.58;2.33;;;28.60;99.90;;;;;;4897297;29;20042;-90
2021/07/25 10:55:43;;;;;;;2.45;1.75;;;26.70;99.90;;;;;;4897317;29;20035;-90
2021/07/25 10:58:12;;;;;;;3.50;1.45;;;25.80;99.90;;;;;;4912796;29;20051;-88
2021/07/25 11:00:45;;;;;;;2.70;1.50;;;26.20;99.90;;;;;;4929255;29;20031;-87
2021/07/25 11:03:30;;;;;;;2.42;1.10;;;27.10;99.90;;;;;;4896352;29;20039;-85
2021/07/25 11:05:59;;;;;;;5.15;1.50;;;27.80;99.90;;;;;;4911840;29;20396;-87
2021/07/25 11:08:36;;;;;;;2.45;1.02;;;27.30;99.90;;;;;;4895848;29;20036;-87
2021/07/25 11:11:34;;;;;;;3.08;2.15;;;26.10;99.90;;;;;;4912045;29;20044;-85
2021/07/25 11:14:05;;;;;;;2.10;1.20;;;26.40;99.90;;;;;;4896437;29;20037;-87
2021/07/25 11:16:31;;;;;;;6.07;1.90;;;27.20;99.90;;;;;;4896358;29;20036;-86
2021/07/25 11:19:07;;;;;;;4.05;1.58;;;26.20;99.90;;;;;;4896246;29;20568;-86
2021/07/25 11:21:41;;;;;;;2.78;1.00;;;26.30;99.90;;;;;;4896246;29;20127;-86
2021/07/25 11:24:19;;;;;;;4.72;1.63;;;26.80;99.90;;;;;;4912074;29;20055;-85
2021/07/25 11:26:49;;;;;;;3.80;1.00;;;27.40;99.90;;;;;;4911434;29;20040;-86
2021/07/25 11:29:33;;;;;;;5.55;0.70;;;27.90;99.90;;;;;;4911835;29;20064;-86
2021/07/25 11:31:59;;;;;;;4.30;1.08;;;27.80;99.90;;;;;;4896065;29;20115;-85
2021/07/25 11:34:35;;;;;;;1.90;0.77;;;27.90;99.90;;;;;;4911835;29;20028;-86
2021/07/25 11:37:07;;;;;;;1.92;0.70;;;28.10;99.90;;;;;;4896259;29;20036;-85
2021/07/25 11:39:33;;;;;;;2.78;0.80;;;28.90;99.90;;;;;;4896438;29;20029;-86
2021/07/25 11:42:03;;;;;;;5.20;1.02;;;27.70;99.90;;;;;;4896346;29;20487;-86
2021/07/25 11:44:30;;;;;;;3.35;0.70;;;27.10;99.90;;;;;;4896517;29;20050;-86
2021/07/25 11:46:58;;;;;;;1.90;0.70;;;27.50;99.90;;;;;;4904049;23;20036;-91
2021/07/25 11:49:29;;;;;;;1.40;0.50;;;28.10;99.90;;;;;;4870772;29;20131;-89
2021/07/25 11:52:00;;;;;;;1.83;0.50;;;28.20;99.90;;;;;;4878480;29;20037;-90
2021/07/25 11:54:27;;;;;;;2.75;1.00;;;28.40;99.90;;;;;;4878588;29;20029;-94
2021/07/25 11:57:10;;;;;;;2.70;0.70;;;27.90;99.90;;;;;;4878588;29;20065;-93
2021/07/25 12:00:03;;;;;;;2.47;0.90;;;28.30;99.90;;;;;;4878465;29;20036;-92
2021/07/25 12:02:33;;;;;;;1.50;0.60;;;28.00;99.90;;;;;;4894053;29;20033;-91
2021/07/25 12:05:00;;;;;;;2.72;0.80;;;28.00;99.90;;;;;;4893566;29;20041;-89
2021/07/25 12:07:31;;;;;;;2.33;0.82;;;27.40;99.90;;;;;;4878043;29;20087;-88
2021/07/25 12:09:58;;;;;;;2.13;0.82;;;27.90;99.90;;;;;;4878331;29;20047;-88
2021/07/25 12:12:24;;;;;;;5.47;0.88;;;27.60;99.90;;;;;;4878033;29;20064;-87
2021/07/25 12:14:56;;;;;;;2.83;0.60;;;27.80;99.90;;;;;;4893483;29;20037;-91
2021/07/25 12:17:50;;;;;;;1.70;0.50;;;29.00;99.90;;;;;;4908760;29;20036;-92
2021/07/25 12:20:33;;;;;;;1.50;0.60;;;28.60;99.90;;;;;;4897647;29;20467;-91
2021/07/25 12:23:00;;;;;;;2.47;0.60;;;28.20;99.90;;;;;;4899789;29;20551;-91
2021/07/25 12:25:28;;;;;;;4.30;0.68;;;29.20;99.90;;;;;;4900948;29;20039;-88
2021/07/25 12:28:03;;;;;;;2.78;0.80;;;28.80;99.90;;;;;;4897931;29;20064;-89
2021/07/25 12:30:57;;;;;;;2.95;0.60;;;27.90;99.90;;;;;;4902622;29;20039;-87
2021/07/25 12:33:27;;;;;;;3.35;0.60;;;28.00;99.90;;;;;;4902013;29;20047;-93
2021/07/25 12:36:43;;;;;;;3.03;0.80;;;27.60;99.90;;;;;;4900148;29;20067;-96
2021/07/25 12:39:18;;;;;;;2.50;0.80;;;27.70;99.90;;;;;;4870822;29;20041;-96
2021/07/25 12:41:44;;;;;;;9.45;1.00;;;27.30;99.90;;;;;;4877216;29;20056;-93
2021/07/25 12:44:24;;;;;;;4.10;0.75;;;27.30;99.90;;;;;;4875158;29;20129;-92
2021/07/25 12:46:51;;;;;;;2.22;0.50;;;28.10;99.90;;;;;;4882007;29;20045;-96
2021/07/25 12:49:17;;;;;;;2.55;0.80;;;28.70;99.90;;;;;;4878627;29;20138;-93
2021/07/25 12:54:25;;;;;;;2.22;0.68;;;26.90;99.90;;;;;;5255339;23;20071;-95